Weather at Minneapolis–Saint Paul International Airport / Wold–Chamberlain Field

Public forecast

Using degrees Fahrenheit for public forecast. Weather courtesy of forecast.io.

Current aviation weather report (METAR) for Minneapolis–Saint Paul International Airport / Wold–Chamberlain Field

Retrieved 2021/10/19 18:53 UTC (2 hours ago):

KMSP 191853Z 16007KT 130V190 10SM FEW250 22/07 A2989 RMK AO2 SLP122 T02170072

Aviation forecast (TAF) for Minneapolis–Saint Paul International Airport / Wold–Chamberlain Field

Retrieved 2021/10/19 18:22 UTC (2 hours ago):

TAF KMSP 191720Z 1918/2024 17006KT P6SM FEW200 FM192300 14004KT P6SM BKN250 FM201200 05006KT P6SM BKN100 FM201500 06010G16KT P6SM -SHRA BKN020 PROB30 2017/2020 4SM -TSRA OVC010CB FM202200 04012G18KT P6SM -SHRA OVC015